sensor_id;sensor_type;location;lat;lon;timestamp;noise_LAeq;noise_LA_min;noise_LA_max;noise_LA01;noise_LA95
67900;Laerm;54700;51.796;10.956;2023-07-13T00:01:45;29.40;27.30;49.92;;
67900;Laerm;54700;51.796;10.956;2023-07-13T00:04:16;28.85;27.39;42.11;;
67900;Laerm;54700;51.796;10.956;2023-07-13T00:06:45;29.52;27.61;38.09;;
67900;Laerm;54700;51.796;10.956;2023-07-13T00:09:13;52.76;27.71;67.71;;
67900;Laerm;54700;51.796;10.956;2023-07-13T00:11:40;29.47;27.61;40.71;;
67900;Laerm;54700;51.796;10.956;2023-07-13T00:14:08;29.24;27.53;48.68;;
67900;Laerm;54700;51.796;10.956;2023-07-13T00:16:37;29.36;27.35;42.06;;
67900;Laerm;54700;51.796;10.956;2023-07-13T00:19:05;29.01;27.20;42.01;;
67900;Laerm;54700;51.796;10.956;2023-07-13T00:21:32;28.82;27.32;37.69;;
67900;Laerm;54700;51.796;10.956;2023-07-13T00:24:01;28.98;27.09;43.89;;
67900;Laerm;54700;51.796;10.956;2023-07-13T00:26:29;28.87;27.27;37.77;;
67900;Laerm;54700;51.796;10.956;2023-07-13T00:28:57;29.22;27.43;42.64;;
67900;Laerm;54700;51.796;10.956;2023-07-13T00:31:26;30.78;27.88;43.44;;
67900;Laerm;54700;51.796;10.956;2023-07-13T00:33:53;54.23;27.94;67.91;;
67900;Laerm;54700;51.796;10.956;2023-07-13T00:36:20;30.82;28.45;44.16;;
67900;Laerm;54700;51.796;10.956;2023-07-13T00:38:47;45.81;27.91;60.25;;
67900;Laerm;54700;51.796;10.956;2023-07-13T00:41:15;30.03;27.48;43.43;;
67900;Laerm;54700;51.796;10.956;2023-07-13T00:43:42;29.55;27.42;43.99;;
67900;Laerm;54700;51.796;10.956;2023-07-13T00:46:21;58.93;27.68;78.45;;
67900;Laerm;54700;51.796;10.956;2023-07-13T00:48:50;47.17;27.62;65.08;;
67900;Laerm;54700;51.796;10.956;2023-07-13T00:51:23;29.25;27.51;42.59;;
67900;Laerm;54700;51.796;10.956;2023-07-13T00:53:53;52.15;27.29;69.47;;
67900;Laerm;54700;51.796;10.956;2023-07-13T00:56:22;43.14;27.35;68.08;;
67900;Laerm;54700;51.796;10.956;2023-07-13T00:58:49;29.02;27.23;44.43;;
67900;Laerm;54700;51.796;10.956;2023-07-13T01:01:16;29.58;27.71;38.58;;
67900;Laerm;54700;51.796;10.956;2023-07-13T01:03:43;52.29;27.91;67.66;;
67900;Laerm;54700;51.796;10.956;2023-07-13T01:06:10;29.21;27.38;39.22;;
67900;Laerm;54700;51.796;10.956;2023-07-13T01:08:37;29.38;27.32;42.41;;
67900;Laerm;54700;51.796;10.956;2023-07-13T01:11:05;28.82;26.90;36.80;;
67900;Laerm;54700;51.796;10.956;2023-07-13T01:13:35;29.29;26.75;49.46;;
67900;Laerm;54700;51.796;10.956;2023-07-13T01:16:05;29.37;27.26;47.78;;
67900;Laerm;54700;51.796;10.956;2023-07-13T01:18:39;28.75;27.20;42.67;;
67900;Laerm;54700;51.796;10.956;2023-07-13T01:21:07;53.79;27.42;70.44;;
67900;Laerm;54700;51.796;10.956;2023-07-13T01:23:33;30.38;27.61;50.29;;
67900;Laerm;54700;51.796;10.956;2023-07-13T01:26:00;29.98;27.42;36.59;;
67900;Laerm;54700;51.796;10.956;2023-07-13T01:28:28;48.50;27.57;64.92;;
67900;Laerm;54700;51.796;10.956;2023-07-13T01:30:58;29.31;27.52;38.11;;
67900;Laerm;54700;51.796;10.956;2023-07-13T01:33:25;29.68;27.26;37.58;;
67900;Laerm;54700;51.796;10.956;2023-07-13T01:35:52;28.92;27.27;39.01;;
67900;Laerm;54700;51.796;10.956;2023-07-13T01:38:22;30.10;27.56;49.33;;
67900;Laerm;54700;51.796;10.956;2023-07-13T01:40:49;30.13;27.99;37.69;;
67900;Laerm;54700;51.796;10.956;2023-07-13T01:43:17;30.17;27.97;39.63;;
67900;Laerm;54700;51.796;10.956;2023-07-13T01:45:44;29.69;27.79;42.35;;
67900;Laerm;54700;51.796;10.956;2023-07-13T01:48:11;48.23;28.09;66.79;;
67900;Laerm;54700;51.796;10.956;2023-07-13T01:50:38;55.06;29.05;68.82;;
67900;Laerm;54700;51.796;10.956;2023-07-13T01:53:05;30.65;28.04;36.59;;
67900;Laerm;54700;51.796;10.956;2023-07-13T01:55:34;29.65;27.73;40.22;;
67900;Laerm;54700;51.796;10.956;2023-07-13T01:58:01;31.36;27.99;40.32;;
67900;Laerm;54700;51.796;10.956;2023-07-13T02:00:28;32.00;28.44;41.91;;
67900;Laerm;54700;51.796;10.956;2023-07-13T02:02:55;34.50;29.11;47.43;;
67900;Laerm;54700;51.796;10.956;2023-07-13T02:05:22;46.39;28.52;62.17;;
67900;Laerm;54700;51.796;10.956;2023-07-13T02:07:49;48.61;30.25;63.62;;
67900;Laerm;54700;51.796;10.956;2023-07-13T02:10:16;32.62;29.66;38.94;;
67900;Laerm;54700;51.796;10.956;2023-07-13T02:12:45;48.90;30.72;64.22;;
67900;Laerm;54700;51.796;10.956;2023-07-13T02:15:11;34.64;30.94;44.71;;
67900;Laerm;54700;51.796;10.956;2023-07-13T02:17:38;34.84;30.73;45.75;;
67900;Laerm;54700;51.796;10.956;2023-07-13T02:20:07;55.30;31.69;68.92;;
67900;Laerm;54700;51.796;10.956;2023-07-13T02:22:35;51.42;31.84;67.15;;
67900;Laerm;54700;51.796;10.956;2023-07-13T02:25:02;49.24;32.31;64.53;;
67900;Laerm;54700;51.796;10.956;2023-07-13T02:27:28;60.98;31.69;78.11;;
67900;Laerm;54700;51.796;10.956;2023-07-13T02:29:56;49.84;31.11;65.40;;
67900;Laerm;54700;51.796;10.956;2023-07-13T02:32:23;54.89;31.18;67.95;;
67900;Laerm;54700;51.796;10.956;2023-07-13T02:34:51;55.78;31.61;68.16;;
67900;Laerm;54700;51.796;10.956;2023-07-13T02:37:19;44.54;31.58;67.32;;
67900;Laerm;54700;51.796;10.956;2023-07-13T02:39:47;54.39;32.67;67.47;;
67900;Laerm;54700;51.796;10.956;2023-07-13T02:42:13;56.27;33.35;71.80;;
67900;Laerm;54700;51.796;10.956;2023-07-13T02:44:40;54.36;33.97;66.91;;
67900;Laerm;54700;51.796;10.956;2023-07-13T02:47:09;53.73;33.71;68.12;;
67900;Laerm;54700;51.796;10.956;2023-07-13T02:49:36;55.13;32.05;68.48;;
67900;Laerm;54700;51.796;10.956;2023-07-13T02:52:03;54.06;32.14;70.13;;
67900;Laerm;54700;51.796;10.956;2023-07-13T02:54:30;60.16;32.21;75.91;;
67900;Laerm;54700;51.796;10.956;2023-07-13T02:56:57;55.61;32.89;69.53;;
67900;Laerm;54700;51.796;10.956;2023-07-13T02:59:24;50.13;31.98;67.87;;
67900;Laerm;54700;51.796;10.956;2023-07-13T03:01:52;53.24;32.45;68.75;;
67900;Laerm;54700;51.796;10.956;2023-07-13T03:04:20;57.50;34.17;71.95;;
67900;Laerm;54700;51.796;10.956;2023-07-13T03:06:46;54.98;33.22;69.48;;
67900;Laerm;54700;51.796;10.956;2023-07-13T03:09:13;53.21;32.74;69.16;;
67900;Laerm;54700;51.796;10.956;2023-07-13T03:11:40;57.76;33.51;74.45;;
67900;Laerm;54700;51.796;10.956;2023-07-13T03:14:08;50.60;33.74;63.75;;
67900;Laerm;54700;51.796;10.956;2023-07-13T03:16:37;53.09;34.50;66.65;;
67900;Laerm;54700;51.796;10.956;2023-07-13T03:19:05;53.12;33.99;68.22;;
67900;Laerm;54700;51.796;10.956;2023-07-13T03:21:33;56.16;35.40;70.11;;
67900;Laerm;54700;51.796;10.956;2023-07-13T03:24:00;59.70;34.98;69.45;;
67900;Laerm;54700;51.796;10.956;2023-07-13T03:26:26;61.71;39.39;71.51;;
67900;Laerm;54700;51.796;10.956;2023-07-13T03:28:53;59.89;35.10;70.43;;
67900;Laerm;54700;51.796;10.956;2023-07-13T03:31:22;56.40;37.55;68.20;;
67900;Laerm;54700;51.796;10.956;2023-07-13T03:33:49;59.59;36.58;69.94;;
67900;Laerm;54700;51.796;10.956;2023-07-13T03:36:18;56.28;36.34;68.92;;
67900;Laerm;54700;51.796;10.956;2023-07-13T03:38:47;59.24;36.83;78.27;;
67900;Laerm;54700;51.796;10.956;2023-07-13T03:41:14;58.39;36.66;69.75;;
67900;Laerm;54700;51.796;10.956;2023-07-13T03:43:42;58.62;39.04;69.45;;
67900;Laerm;54700;51.796;10.956;2023-07-13T03:46:09;59.67;36.82;69.60;;
67900;Laerm;54700;51.796;10.956;2023-07-13T03:48:36;56.49;36.67;68.94;;
67900;Laerm;54700;51.796;10.956;2023-07-13T03:51:05;62.02;38.25;73.99;;
67900;Laerm;54700;51.796;10.956;2023-07-13T03:53:32;59.59;36.14;70.46;;
67900;Laerm;54700;51.796;10.956;2023-07-13T03:56:00;58.02;35.00;68.42;;
67900;Laerm;54700;51.796;10.956;2023-07-13T03:58:31;59.14;35.65;70.93;;
67900;Laerm;54700;51.796;10.956;2023-07-13T04:00:59;62.50;36.99;73.33;;
67900;Laerm;54700;51.796;10.956;2023-07-13T04:03:27;57.25;34.66;69.54;;
67900;Laerm;54700;51.796;10.956;2023-07-13T04:05:55;61.19;36.28;71.67;;
67900;Laerm;54700;51.796;10.956;2023-07-13T04:08:26;61.60;38.43;72.31;;
67900;Laerm;54700;51.796;10.956;2023-07-13T04:10:53;59.22;39.70;71.52;;
67900;Laerm;54700;51.796;10.956;2023-07-13T04:13:22;57.14;35.97;68.04;;
67900;Laerm;54700;51.796;10.956;2023-07-13T04:15:49;60.99;38.18;71.69;;
67900;Laerm;54700;51.796;10.956;2023-07-13T04:18:16;59.50;37.45;70.42;;
67900;Laerm;54700;51.796;10.956;2023-07-13T04:20:45;60.16;36.35;75.32;;
67900;Laerm;54700;51.796;10.956;2023-07-13T04:23:12;62.85;36.83;75.24;;
67900;Laerm;54700;51.796;10.956;2023-07-13T04:25:39;60.63;40.58;70.10;;
67900;Laerm;54700;51.796;10.956;2023-07-13T04:28:07;56.69;37.39;67.63;;
67900;Laerm;54700;51.796;10.956;2023-07-13T04:30:35;60.25;35.99;70.17;;
67900;Laerm;54700;51.796;10.956;2023-07-13T04:33:01;62.23;41.24;72.06;;
67900;Laerm;54700;51.796;10.956;2023-07-13T04:35:30;61.22;40.39;71.92;;
67900;Laerm;54700;51.796;10.956;2023-07-13T04:37:57;60.80;38.49;73.83;;
67900;Laerm;54700;51.796;10.956;2023-07-13T04:40:23;63.47;42.04;75.61;;
67900;Laerm;54700;51.796;10.956;2023-07-13T04:42:50;61.57;40.66;74.26;;
67900;Laerm;54700;51.796;10.956;2023-07-13T04:45:17;59.36;38.41;72.74;;
67900;Laerm;54700;51.796;10.956;2023-07-13T04:47:45;57.80;38.57;69.67;;
67900;Laerm;54700;51.796;10.956;2023-07-13T04:50:13;60.38;39.08;70.75;;
67900;Laerm;54700;51.796;10.956;2023-07-13T04:52:45;63.91;46.21;75.56;;
67900;Laerm;54700;51.796;10.956;2023-07-13T04:55:12;62.08;41.56;80.96;;
67900;Laerm;54700;51.796;10.956;2023-07-13T04:57:39;57.67;38.08;70.12;;
67900;Laerm;54700;51.796;10.956;2023-07-13T05:00:07;57.83;37.93;72.53;;
67900;Laerm;54700;51.796;10.956;2023-07-13T05:02:35;63.20;54.77;75.73;;
67900;Laerm;54700;51.796;10.956;2023-07-13T05:05:03;61.14;40.09;70.23;;
67900;Laerm;54700;51.796;10.956;2023-07-13T05:07:30;58.80;37.03;69.46;;
67900;Laerm;54700;51.796;10.956;2023-07-13T05:09:58;62.74;41.89;71.78;;
67900;Laerm;54700;51.796;10.956;2023-07-13T05:12:25;63.54;45.02;74.01;;
67900;Laerm;54700;51.796;10.956;2023-07-13T05:14:52;62.28;37.75;78.36;;
67900;Laerm;54700;51.796;10.956;2023-07-13T05:17:19;60.22;38.50;69.94;;
67900;Laerm;54700;51.796;10.956;2023-07-13T05:19:46;60.99;39.83;70.51;;
67900;Laerm;54700;51.796;10.956;2023-07-13T05:22:14;60.46;43.57;71.00;;
67900;Laerm;54700;51.796;10.956;2023-07-13T05:24:41;61.79;40.44;72.03;;
67900;Laerm;54700;51.796;10.956;2023-07-13T05:27:08;61.48;42.12;70.07;;
67900;Laerm;54700;51.796;10.956;2023-07-13T05:29:35;59.51;38.62;69.48;;
67900;Laerm;54700;51.796;10.956;2023-07-13T05:32:02;63.40;40.22;72.85;;
67900;Laerm;54700;51.796;10.956;2023-07-13T05:34:29;61.54;40.16;76.36;;
67900;Laerm;54700;51.796;10.956;2023-07-13T05:36:56;59.76;37.65;70.59;;
67900;Laerm;54700;51.796;10.956;2023-07-13T05:39:25;61.61;41.68;74.22;;
67900;Laerm;54700;51.796;10.956;2023-07-13T05:41:53;62.59;48.14;73.39;;
67900;Laerm;54700;51.796;10.956;2023-07-13T05:44:20;59.63;40.98;67.81;;
67900;Laerm;54700;51.796;10.956;2023-07-13T05:46:47;61.35;40.39;78.70;;
67900;Laerm;54700;51.796;10.956;2023-07-13T05:49:14;63.68;36.60;82.47;;
67900;Laerm;54700;51.796;10.956;2023-07-13T05:51:41;61.89;44.17;71.37;;
67900;Laerm;54700;51.796;10.956;2023-07-13T05:54:08;63.70;36.27;79.18;;
67900;Laerm;54700;51.796;10.956;2023-07-13T05:56:37;62.53;36.89;80.37;;
67900;Laerm;54700;51.796;10.956;2023-07-13T05:59:04;62.34;45.93;76.15;;
67900;Laerm;54700;51.796;10.956;2023-07-13T06:01:31;61.08;41.21;69.53;;
67900;Laerm;54700;51.796;10.956;2023-07-13T06:03:58;60.77;40.80;70.70;;
67900;Laerm;54700;51.796;10.956;2023-07-13T06:06:28;63.78;45.49;74.72;;
67900;Laerm;54700;51.796;10.956;2023-07-13T06:08:55;58.96;37.65;70.36;;
67900;Laerm;54700;51.796;10.956;2023-07-13T06:11:24;60.25;36.69;69.67;;
67900;Laerm;54700;51.796;10.956;2023-07-13T06:13:52;59.43;38.23;73.04;;
67900;Laerm;54700;51.796;10.956;2023-07-13T06:16:19;58.31;36.68;70.93;;
67900;Laerm;54700;51.796;10.956;2023-07-13T06:18:46;58.29;37.48;70.48;;
67900;Laerm;54700;51.796;10.956;2023-07-13T06:21:14;58.57;35.61;69.87;;
67900;Laerm;54700;51.796;10.956;2023-07-13T06:23:42;60.89;39.26;73.56;;
67900;Laerm;54700;51.796;10.956;2023-07-13T06:26:09;60.77;36.84;74.07;;
67900;Laerm;54700;51.796;10.956;2023-07-13T06:28:38;61.33;48.67;69.24;;
67900;Laerm;54700;51.796;10.956;2023-07-13T06:31:08;61.70;40.25;71.05;;
67900;Laerm;54700;51.796;10.956;2023-07-13T06:33:36;63.52;42.87;78.17;;
67900;Laerm;54700;51.796;10.956;2023-07-13T06:36:04;62.01;41.13;80.28;;
67900;Laerm;54700;51.796;10.956;2023-07-13T06:38:31;63.81;49.44;77.39;;
67900;Laerm;54700;51.796;10.956;2023-07-13T06:40:58;59.14;38.73;69.37;;
67900;Laerm;54700;51.796;10.956;2023-07-13T06:43:28;60.46;33.87;69.73;;
67900;Laerm;54700;51.796;10.956;2023-07-13T06:45:57;59.59;39.59;68.95;;
67900;Laerm;54700;51.796;10.956;2023-07-13T06:48:25;61.10;39.64;69.27;;
67900;Laerm;54700;51.796;10.956;2023-07-13T06:50:54;59.61;36.32;67.89;;
67900;Laerm;54700;51.796;10.956;2023-07-13T06:53:21;60.39;42.73;69.26;;
67900;Laerm;54700;51.796;10.956;2023-07-13T06:55:49;62.04;45.46;73.45;;
67900;Laerm;54700;51.796;10.956;2023-07-13T06:58:17;59.71;39.44;67.45;;
67900;Laerm;54700;51.796;10.956;2023-07-13T07:00:45;62.50;42.05;74.66;;
67900;Laerm;54700;51.796;10.956;2023-07-13T07:03:12;61.24;40.64;73.17;;
67900;Laerm;54700;51.796;10.956;2023-07-13T07:05:43;62.44;46.16;70.63;;
67900;Laerm;54700;51.796;10.956;2023-07-13T07:08:10;61.90;43.91;70.20;;
67900;Laerm;54700;51.796;10.956;2023-07-13T07:10:36;59.18;41.53;70.31;;
67900;Laerm;54700;51.796;10.956;2023-07-13T07:13:05;62.13;41.70;72.37;;
67900;Laerm;54700;51.796;10.956;2023-07-13T07:15:34;61.08;43.71;69.64;;
67900;Laerm;54700;51.796;10.956;2023-07-13T07:18:01;61.97;40.90;74.05;;
67900;Laerm;54700;51.796;10.956;2023-07-13T07:20:28;62.73;46.42;72.07;;
67900;Laerm;54700;51.796;10.956;2023-07-13T07:22:57;62.63;47.95;78.50;;
67900;Laerm;54700;51.796;10.956;2023-07-13T07:25:24;63.90;47.99;73.04;;
67900;Laerm;54700;51.796;10.956;2023-07-13T07:27:51;60.75;43.78;81.50;;
67900;Laerm;54700;51.796;10.956;2023-07-13T07:30:18;60.30;43.68;70.21;;
67900;Laerm;54700;51.796;10.956;2023-07-13T07:32:48;62.38;47.45;72.36;;
67900;Laerm;54700;51.796;10.956;2023-07-13T07:35:18;63.32;44.48;79.17;;
67900;Laerm;54700;51.796;10.956;2023-07-13T07:37:45;63.02;53.30;74.35;;
67900;Laerm;54700;51.796;10.956;2023-07-13T07:40:13;61.34;43.72;70.60;;
67900;Laerm;54700;51.796;10.956;2023-07-13T07:42:40;60.24;41.35;77.58;;
67900;Laerm;54700;51.796;10.956;2023-07-13T07:45:07;63.31;50.21;75.40;;
67900;Laerm;54700;51.796;10.956;2023-07-13T07:47:36;60.26;44.14;70.30;;
67900;Laerm;54700;51.796;10.956;2023-07-13T07:50:04;62.82;45.85;70.96;;
67900;Laerm;54700;51.796;10.956;2023-07-13T07:52:31;63.43;42.23;82.14;;
67900;Laerm;54700;51.796;10.956;2023-07-13T07:54:58;59.82;40.47;66.96;;
67900;Laerm;54700;51.796;10.956;2023-07-13T07:57:27;61.02;46.88;69.43;;
67900;Laerm;54700;51.796;10.956;2023-07-13T07:59:54;62.76;48.26;75.67;;
67900;Laerm;54700;51.796;10.956;2023-07-13T08:02:21;63.34;45.08;86.28;;
67900;Laerm;54700;51.796;10.956;2023-07-13T08:04:47;63.95;48.15;75.80;;
67900;Laerm;54700;51.796;10.956;2023-07-13T08:07:17;66.04;51.24;79.39;;
67900;Laerm;54700;51.796;10.956;2023-07-13T08:09:44;62.96;48.21;74.85;;
67900;Laerm;54700;51.796;10.956;2023-07-13T08:12:12;62.74;44.16;84.19;;
67900;Laerm;54700;51.796;10.956;2023-07-13T08:14:40;60.22;42.60;67.81;;
67900;Laerm;54700;51.796;10.956;2023-07-13T08:17:07;62.28;48.32;73.96;;
67900;Laerm;54700;51.796;10.956;2023-07-13T08:19:34;61.61;45.26;71.35;;
67900;Laerm;54700;51.796;10.956;2023-07-13T08:22:00;61.55;46.81;69.18;;
67900;Laerm;54700;51.796;10.956;2023-07-13T08:24:27;62.53;49.51;82.48;;
67900;Laerm;54700;51.796;10.956;2023-07-13T08:26:54;60.85;43.99;70.65;;
67900;Laerm;54700;51.796;10.956;2023-07-13T08:29:21;61.33;41.55;70.11;;
67900;Laerm;54700;51.796;10.956;2023-07-13T08:31:49;62.82;42.04;80.28;;
67900;Laerm;54700;51.796;10.956;2023-07-13T08:34:16;64.64;49.46;79.80;;
67900;Laerm;54700;51.796;10.956;2023-07-13T08:36:43;61.72;45.71;72.32;;
67900;Laerm;54700;51.796;10.956;2023-07-13T08:39:10;64.32;43.49;75.43;;
67900;Laerm;54700;51.796;10.956;2023-07-13T08:41:38;59.90;39.82;75.31;;
67900;Laerm;54700;51.796;10.956;2023-07-13T08:44:13;62.73;51.61;75.20;;
67900;Laerm;54700;51.796;10.956;2023-07-13T08:46:45;66.56;48.65;81.21;;
67900;Laerm;54700;51.796;10.956;2023-07-13T08:49:20;61.35;40.63;71.95;;
67900;Laerm;54700;51.796;10.956;2023-07-13T08:51:52;64.20;49.62;72.93;;
67900;Laerm;54700;51.796;10.956;2023-07-13T08:54:26;61.12;48.23;69.91;;
67900;Laerm;54700;51.796;10.956;2023-07-13T08:56:56;61.65;43.80;69.89;;
67900;Laerm;54700;51.796;10.956;2023-07-13T08:59:26;63.18;48.65;70.88;;
67900;Laerm;54700;51.796;10.956;2023-07-13T09:02:03;62.52;45.88;74.46;;
67900;Laerm;54700;51.796;10.956;2023-07-13T09:04:42;62.03;46.67;71.15;;
67900;Laerm;54700;51.796;10.956;2023-07-13T09:07:16;61.42;43.81;69.60;;
67900;Laerm;54700;51.796;10.956;2023-07-13T09:09:54;62.60;49.49;70.03;;
67900;Laerm;54700;51.796;10.956;2023-07-13T09:12:31;62.68;42.36;72.38;;
67900;Laerm;54700;51.796;10.956;2023-07-13T09:15:04;60.23;37.22;70.28;;
67900;Laerm;54700;51.796;10.956;2023-07-13T09:17:35;62.05;42.82;71.54;;
67900;Laerm;54700;51.796;10.956;2023-07-13T09:20:17;62.17;39.30;74.03;;
67900;Laerm;54700;51.796;10.956;2023-07-13T09:22:47;62.07;39.40;72.60;;
67900;Laerm;54700;51.796;10.956;2023-07-13T09:25:24;61.86;38.35;71.61;;
67900;Laerm;54700;51.796;10.956;2023-07-13T09:27:57;59.98;37.74;68.50;;
67900;Laerm;54700;51.796;10.956;2023-07-13T09:30:33;64.39;45.91;72.03;;
67900;Laerm;54700;51.796;10.956;2023-07-13T09:33:01;64.40;47.82;76.26;;
67900;Laerm;54700;51.796;10.956;2023-07-13T09:35:29;61.36;43.55;69.73;;
67900;Laerm;54700;51.796;10.956;2023-07-13T09:38:06;60.35;39.76;69.66;;
67900;Laerm;54700;51.796;10.956;2023-07-13T09:40:46;58.47;41.60;67.78;;
67900;Laerm;54700;51.796;10.956;2023-07-13T09:43:17;60.96;37.67;71.23;;
67900;Laerm;54700;51.796;10.956;2023-07-13T09:45:47;63.12;44.49;80.04;;
67900;Laerm;54700;51.796;10.956;2023-07-13T09:48:16;61.95;50.43;70.95;;
67900;Laerm;54700;51.796;10.956;2023-07-13T09:50:48;61.90;43.52;72.99;;
67900;Laerm;54700;51.796;10.956;2023-07-13T09:53:17;65.53;43.48;80.08;;
67900;Laerm;54700;51.796;10.956;2023-07-13T09:55:49;59.83;40.09;68.82;;
67900;Laerm;54700;51.796;10.956;2023-07-13T09:58:17;61.88;37.69;72.38;;
67900;Laerm;54700;51.796;10.956;2023-07-13T10:00:54;61.80;37.99;71.78;;
67900;Laerm;54700;51.796;10.956;2023-07-13T10:03:26;60.82;47.06;71.31;;
67900;Laerm;54700;51.796;10.956;2023-07-13T10:06:03;59.18;39.03;68.66;;
67900;Laerm;54700;51.796;10.956;2023-07-13T10:08:35;61.85;42.86;70.70;;
67900;Laerm;54700;51.796;10.956;2023-07-13T10:11:10;63.80;39.57;74.25;;
67900;Laerm;54700;51.796;10.956;2023-07-13T10:13:41;59.81;42.04;69.31;;
67900;Laerm;54700;51.796;10.956;2023-07-13T10:16:09;58.78;40.31;68.33;;
67900;Laerm;54700;51.796;10.956;2023-07-13T10:18:40;62.75;39.39;70.05;;
67900;Laerm;54700;51.796;10.956;2023-07-13T10:21:13;59.04;37.86;69.94;;
67900;Laerm;54700;51.796;10.956;2023-07-13T10:23:42;62.16;39.23;69.05;;
67900;Laerm;54700;51.796;10.956;2023-07-13T10:26:16;63.32;46.88;75.01;;
67900;Laerm;54700;51.796;10.956;2023-07-13T10:28:47;61.87;45.25;70.03;;
67900;Laerm;54700;51.796;10.956;2023-07-13T10:31:19;63.00;40.91;75.50;;
67900;Laerm;54700;51.796;10.956;2023-07-13T10:33:47;60.68;37.81;71.65;;
67900;Laerm;54700;51.796;10.956;2023-07-13T10:36:27;61.29;44.24;71.08;;
67900;Laerm;54700;51.796;10.956;2023-07-13T10:38:55;61.42;39.93;73.29;;
67900;Laerm;54700;51.796;10.956;2023-07-13T10:41:28;62.57;46.68;70.17;;
67900;Laerm;54700;51.796;10.956;2023-07-13T10:43:57;61.28;39.57;72.82;;
67900;Laerm;54700;51.796;10.956;2023-07-13T10:46:28;63.37;38.64;81.95;;
67900;Laerm;54700;51.796;10.956;2023-07-13T10:49:03;59.62;37.88;74.48;;
67900;Laerm;54700;51.796;10.956;2023-07-13T10:51:33;63.02;42.75;73.29;;
67900;Laerm;54700;51.796;10.956;2023-07-13T10:54:19;61.26;46.50;69.72;;
67900;Laerm;54700;51.796;10.956;2023-07-13T10:56:52;63.34;46.98;77.33;;
67900;Laerm;54700;51.796;10.956;2023-07-13T10:59:25;61.65;41.38;69.93;;
67900;Laerm;54700;51.796;10.956;2023-07-13T11:01:56;60.62;38.85;70.15;;
67900;Laerm;54700;51.796;10.956;2023-07-13T11:04:25;62.84;40.75;76.15;;
67900;Laerm;54700;51.796;10.956;2023-07-13T11:06:57;63.27;40.67;77.10;;
67900;Laerm;54700;51.796;10.956;2023-07-13T11:09:34;63.11;47.91;82.88;;
67900;Laerm;54700;51.796;10.956;2023-07-13T11:12:06;62.52;44.35;73.36;;
67900;Laerm;54700;51.796;10.956;2023-07-13T11:14:36;58.61;36.10;69.39;;
67900;Laerm;54700;51.796;10.956;2023-07-13T11:17:24;61.63;42.59;74.09;;
67900;Laerm;54700;51.796;10.956;2023-07-13T11:19:52;61.98;45.38;70.86;;
67900;Laerm;54700;51.796;10.956;2023-07-13T11:22:25;60.94;41.25;73.70;;
67900;Laerm;54700;51.796;10.956;2023-07-13T11:25:28;62.53;46.05;72.14;;
67900;Laerm;54700;51.796;10.956;2023-07-13T11:28:14;60.92;43.94;69.79;;
67900;Laerm;54700;51.796;10.956;2023-07-13T11:30:46;62.03;42.42;78.19;;
67900;Laerm;54700;51.796;10.956;2023-07-13T11:33:16;62.27;37.84;76.89;;
67900;Laerm;54700;51.796;10.956;2023-07-13T11:35:52;60.46;42.53;71.56;;
67900;Laerm;54700;51.796;10.956;2023-07-13T11:38:23;60.39;39.09;70.14;;
67900;Laerm;54700;51.796;10.956;2023-07-13T11:40:54;61.69;48.81;69.84;;
67900;Laerm;54700;51.796;10.956;2023-07-13T11:43:22;61.26;39.69;70.53;;
67900;Laerm;54700;51.796;10.956;2023-07-13T11:45:51;59.88;36.92;69.93;;
67900;Laerm;54700;51.796;10.956;2023-07-13T11:48:20;61.36;43.56;70.51;;
67900;Laerm;54700;51.796;10.956;2023-07-13T11:51:01;61.18;40.62;71.40;;
67900;Laerm;54700;51.796;10.956;2023-07-13T11:53:37;65.25;45.09;75.50;;
67900;Laerm;54700;51.796;10.956;2023-07-13T11:56:05;65.72;51.14;77.69;;
67900;Laerm;54700;51.796;10.956;2023-07-13T11:58:33;60.37;41.71;68.35;;
67900;Laerm;54700;51.796;10.956;2023-07-13T12:01:01;62.70;43.94;76.06;;
67900;Laerm;54700;51.796;10.956;2023-07-13T12:03:32;62.94;41.69;73.41;;
67900;Laerm;54700;51.796;10.956;2023-07-13T12:06:01;63.84;41.34;80.20;;
67900;Laerm;54700;51.796;10.956;2023-07-13T12:08:29;62.59;44.70;73.30;;
67900;Laerm;54700;51.796;10.956;2023-07-13T12:10:59;61.84;38.88;71.79;;
67900;Laerm;54700;51.796;10.956;2023-07-13T12:13:27;60.74;37.65;70.10;;
67900;Laerm;54700;51.796;10.956;2023-07-13T12:15:56;61.23;35.20;72.11;;
67900;Laerm;54700;51.796;10.956;2023-07-13T12:18:28;59.88;37.67;68.72;;
67900;Laerm;54700;51.796;10.956;2023-07-13T12:20:59;60.98;37.18;70.80;;
67900;Laerm;54700;51.796;10.956;2023-07-13T12:23:30;61.88;46.29;69.66;;
67900;Laerm;54700;51.796;10.956;2023-07-13T12:26:04;60.68;39.82;69.49;;
67900;Laerm;54700;51.796;10.956;2023-07-13T12:28:33;62.32;41.74;71.78;;
67900;Laerm;54700;51.796;10.956;2023-07-13T12:31:02;62.24;39.98;73.05;;
67900;Laerm;54700;51.796;10.956;2023-07-13T12:33:31;63.30;49.52;83.66;;
67900;Laerm;54700;51.796;10.956;2023-07-13T12:36:00;63.83;40.34;81.92;;
67900;Laerm;54700;51.796;10.956;2023-07-13T12:38:30;62.48;44.99;72.99;;
67900;Laerm;54700;51.796;10.956;2023-07-13T12:40:57;61.92;46.38;70.56;;
67900;Laerm;54700;51.796;10.956;2023-07-13T12:43:36;60.92;43.16;69.72;;
67900;Laerm;54700;51.796;10.956;2023-07-13T12:46:17;64.51;50.79;81.28;;
67900;Laerm;54700;51.796;10.956;2023-07-13T12:48:44;61.87;40.12;68.65;;
67900;Laerm;54700;51.796;10.956;2023-07-13T12:51:15;62.27;45.34;72.02;;
67900;Laerm;54700;51.796;10.956;2023-07-13T12:53:48;62.53;50.17;74.02;;
67900;Laerm;54700;51.796;10.956;2023-07-13T12:56:19;63.55;45.18;71.29;;
67900;Laerm;54700;51.796;10.956;2023-07-13T12:58:50;64.84;46.87;76.62;;
67900;Laerm;54700;51.796;10.956;2023-07-13T13:01:21;61.62;46.37;83.48;;
67900;Laerm;54700;51.796;10.956;2023-07-13T13:03:50;62.23;44.68;69.48;;
67900;Laerm;54700;51.796;10.956;2023-07-13T13:06:22;64.63;49.37;78.96;;
67900;Laerm;54700;51.796;10.956;2023-07-13T13:08:52;63.40;39.75;71.01;;
67900;Laerm;54700;51.796;10.956;2023-07-13T13:11:21;62.41;42.78;70.30;;
67900;Laerm;54700;51.796;10.956;2023-07-13T13:13:51;63.46;47.08;72.11;;
67900;Laerm;54700;51.796;10.956;2023-07-13T13:16:21;61.58;41.20;70.62;;
67900;Laerm;54700;51.796;10.956;2023-07-13T13:18:51;63.96;50.38;72.49;;
67900;Laerm;54700;51.796;10.956;2023-07-13T13:21:19;64.05;45.23;74.33;;
67900;Laerm;54700;51.796;10.956;2023-07-13T13:23:46;61.10;40.45;71.62;;
67900;Laerm;54700;51.796;10.956;2023-07-13T13:26:15;63.32;50.79;72.12;;
67900;Laerm;54700;51.796;10.956;2023-07-13T13:28:42;63.18;42.06;73.63;;
67900;Laerm;54700;51.796;10.956;2023-07-13T13:31:11;61.80;45.28;70.02;;
67900;Laerm;54700;51.796;10.956;2023-07-13T13:33:40;65.34;42.16;82.90;;
67900;Laerm;54700;51.796;10.956;2023-07-13T13:36:18;61.46;39.12;70.47;;
67900;Laerm;54700;51.796;10.956;2023-07-13T13:38:46;63.33;49.99;71.67;;
67900;Laerm;54700;51.796;10.956;2023-07-13T13:41:14;60.85;41.72;70.34;;
67900;Laerm;54700;51.796;10.956;2023-07-13T13:43:42;65.21;55.30;74.35;;